sensor_id;sensor_type;location;lat;lon;timestamp;P1;durP1;ratioP1;P2;durP2;ratioP2
6928;SDS011;3504;52.616;13.238;2023-03-23T00:02:42;3.50;;;2.87;;
6928;SDS011;3504;52.616;13.238;2023-03-23T00:07:43;4.93;;;3.10;;
6928;SDS011;3504;52.616;13.238;2023-03-23T00:12:45;3.57;;;2.60;;
6928;SDS011;3504;52.616;13.238;2023-03-23T00:17:49;4.63;;;2.63;;
6928;SDS011;3504;52.616;13.238;2023-03-23T00:22:51;5.70;;;3.03;;
6928;SDS011;3504;52.616;13.238;2023-03-23T00:27:51;4.37;;;2.63;;
6928;SDS011;3504;52.616;13.238;2023-03-23T00:32:52;4.50;;;3.10;;
6928;SDS011;3504;52.616;13.238;2023-03-23T00:37:52;4.13;;;2.60;;
6928;SDS011;3504;52.616;13.238;2023-03-23T00:42:53;3.50;;;2.53;;
6928;SDS011;3504;52.616;13.238;2023-03-23T00:47:54;4.83;;;2.60;;
6928;SDS011;3504;52.616;13.238;2023-03-23T00:52:54;3.73;;;3.10;;
6928;SDS011;3504;52.616;13.238;2023-03-23T00:57:56;3.93;;;3.00;;
6928;SDS011;3504;52.616;13.238;2023-03-23T01:02:57;3.73;;;3.20;;
6928;SDS011;3504;52.616;13.238;2023-03-23T01:07:58;3.77;;;2.90;;
6928;SDS011;3504;52.616;13.238;2023-03-23T01:12:59;3.20;;;2.90;;
6928;SDS011;3504;52.616;13.238;2023-03-23T01:18:03;6.13;;;2.77;;
6928;SDS011;3504;52.616;13.238;2023-03-23T01:23:03;4.97;;;3.00;;
6928;SDS011;3504;52.616;13.238;2023-03-23T01:28:07;4.77;;;2.53;;
6928;SDS011;3504;52.616;13.238;2023-03-23T01:33:08;3.40;;;2.70;;
6928;SDS011;3504;52.616;13.238;2023-03-23T01:38:08;4.10;;;2.37;;
6928;SDS011;3504;52.616;13.238;2023-03-23T01:43:11;4.20;;;2.63;;
6928;SDS011;3504;52.616;13.238;2023-03-23T01:48:18;5.93;;;2.90;;
6928;SDS011;3504;52.616;13.238;2023-03-23T01:53:30;5.03;;;3.07;;
6928;SDS011;3504;52.616;13.238;2023-03-23T01:58:37;3.37;;;2.70;;
6928;SDS011;3504;52.616;13.238;2023-03-23T02:03:39;3.10;;;2.50;;
6928;SDS011;3504;52.616;13.238;2023-03-23T02:08:44;3.70;;;2.90;;
6928;SDS011;3504;52.616;13.238;2023-03-23T02:13:46;4.03;;;2.67;;
6928;SDS011;3504;52.616;13.238;2023-03-23T02:18:51;3.17;;;2.83;;
6928;SDS011;3504;52.616;13.238;2023-03-23T02:24:29;3.07;;;2.57;;
6928;SDS011;3504;52.616;13.238;2023-03-23T02:35:21;4.13;;;3.03;;
6928;SDS011;3504;52.616;13.238;2023-03-23T02:40:33;4.83;;;3.13;;
6928;SDS011;3504;52.616;13.238;2023-03-23T02:45:45;4.43;;;3.30;;
6928;SDS011;3504;52.616;13.238;2023-03-23T02:50:47;4.93;;;3.07;;
6928;SDS011;3504;52.616;13.238;2023-03-23T02:55:52;6.37;;;3.20;;
6928;SDS011;3504;52.616;13.238;2023-03-23T03:00:56;4.40;;;3.00;;
6928;SDS011;3504;52.616;13.238;2023-03-23T03:11:19;4.03;;;3.13;;
6928;SDS011;3504;52.616;13.238;2023-03-23T03:16:38;3.73;;;2.83;;
6928;SDS011;3504;52.616;13.238;2023-03-23T03:21:49;4.03;;;2.83;;
6928;SDS011;3504;52.616;13.238;2023-03-23T03:26:58;6.10;;;3.00;;
6928;SDS011;3504;52.616;13.238;2023-03-23T03:32:12;4.17;;;2.93;;
6928;SDS011;3504;52.616;13.238;2023-03-23T03:37:19;8.07;;;3.60;;
6928;SDS011;3504;52.616;13.238;2023-03-23T03:42:21;4.57;;;3.17;;
6928;SDS011;3504;52.616;13.238;2023-03-23T03:47:25;4.80;;;3.77;;
6928;SDS011;3504;52.616;13.238;2023-03-23T03:52:26;3.70;;;3.03;;
6928;SDS011;3504;52.616;13.238;2023-03-23T03:57:27;5.60;;;3.60;;
6928;SDS011;3504;52.616;13.238;2023-03-23T04:02:54;3.73;;;3.30;;
6928;SDS011;3504;52.616;13.238;2023-03-23T04:08:20;4.70;;;3.40;;
6928;SDS011;3504;52.616;13.238;2023-03-23T04:13:24;3.07;;;2.73;;
6928;SDS011;3504;52.616;13.238;2023-03-23T04:18:38;3.77;;;2.70;;
6928;SDS011;3504;52.616;13.238;2023-03-23T04:23:39;4.10;;;3.10;;
6928;SDS011;3504;52.616;13.238;2023-03-23T04:28:41;3.47;;;2.73;;
6928;SDS011;3504;52.616;13.238;2023-03-23T04:34:14;3.83;;;2.80;;
6928;SDS011;3504;52.616;13.238;2023-03-23T04:39:20;3.83;;;2.83;;
6928;SDS011;3504;52.616;13.238;2023-03-23T04:44:20;5.10;;;2.53;;
6928;SDS011;3504;52.616;13.238;2023-03-23T04:49:28;3.70;;;2.90;;
6928;SDS011;3504;52.616;13.238;2023-03-23T04:54:39;3.50;;;3.20;;
6928;SDS011;3504;52.616;13.238;2023-03-23T04:59:40;4.17;;;3.23;;
6928;SDS011;3504;52.616;13.238;2023-03-23T05:04:47;3.37;;;3.00;;
6928;SDS011;3504;52.616;13.238;2023-03-23T05:09:52;4.70;;;3.80;;
6928;SDS011;3504;52.616;13.238;2023-03-23T05:14:57;6.57;;;3.30;;
6928;SDS011;3504;52.616;13.238;2023-03-23T05:20:01;5.20;;;2.80;;
6928;SDS011;3504;52.616;13.238;2023-03-23T05:25:12;5.40;;;4.53;;
6928;SDS011;3504;52.616;13.238;2023-03-23T05:30:17;6.17;;;3.20;;
6928;SDS011;3504;52.616;13.238;2023-03-23T05:35:19;4.30;;;3.40;;
6928;SDS011;3504;52.616;13.238;2023-03-23T05:40:23;5.63;;;3.40;;
6928;SDS011;3504;52.616;13.238;2023-03-23T05:45:46;4.47;;;3.43;;
6928;SDS011;3504;52.616;13.238;2023-03-23T05:50:47;3.60;;;3.30;;
6928;SDS011;3504;52.616;13.238;2023-03-23T05:55:48;5.73;;;4.33;;
6928;SDS011;3504;52.616;13.238;2023-03-23T06:00:57;5.30;;;4.03;;
6928;SDS011;3504;52.616;13.238;2023-03-23T06:06:02;6.47;;;3.30;;
6928;SDS011;3504;52.616;13.238;2023-03-23T06:11:12;8.87;;;3.90;;
6928;SDS011;3504;52.616;13.238;2023-03-23T06:16:20;4.83;;;3.50;;
6928;SDS011;3504;52.616;13.238;2023-03-23T06:21:27;4.40;;;3.87;;
6928;SDS011;3504;52.616;13.238;2023-03-23T06:26:47;5.07;;;3.20;;
6928;SDS011;3504;52.616;13.238;2023-03-23T06:31:54;5.03;;;3.57;;
6928;SDS011;3504;52.616;13.238;2023-03-23T06:37:01;4.73;;;3.30;;
6928;SDS011;3504;52.616;13.238;2023-03-23T06:42:21;4.90;;;3.10;;
6928;SDS011;3504;52.616;13.238;2023-03-23T06:47:46;5.70;;;3.60;;
6928;SDS011;3504;52.616;13.238;2023-03-23T06:52:49;4.13;;;2.80;;
6928;SDS011;3504;52.616;13.238;2023-03-23T06:57:55;4.97;;;3.30;;
6928;SDS011;3504;52.616;13.238;2023-03-23T07:02:55;6.23;;;3.30;;
6928;SDS011;3504;52.616;13.238;2023-03-23T07:07:56;4.53;;;3.07;;
6928;SDS011;3504;52.616;13.238;2023-03-23T07:13:05;4.63;;;3.20;;
6928;SDS011;3504;52.616;13.238;2023-03-23T07:18:15;3.80;;;3.27;;
6928;SDS011;3504;52.616;13.238;2023-03-23T07:23:20;3.43;;;3.07;;
6928;SDS011;3504;52.616;13.238;2023-03-23T07:28:28;7.57;;;3.10;;
6928;SDS011;3504;52.616;13.238;2023-03-23T07:33:34;4.67;;;2.80;;
6928;SDS011;3504;52.616;13.238;2023-03-23T07:38:36;3.03;;;2.70;;
6928;SDS011;3504;52.616;13.238;2023-03-23T07:43:37;3.33;;;2.83;;
6928;SDS011;3504;52.616;13.238;2023-03-23T07:48:43;3.33;;;2.77;;
6928;SDS011;3504;52.616;13.238;2023-03-23T07:53:45;5.00;;;3.00;;
6928;SDS011;3504;52.616;13.238;2023-03-23T07:59:09;6.43;;;3.80;;
6928;SDS011;3504;52.616;13.238;2023-03-23T08:04:14;4.30;;;3.20;;
6928;SDS011;3504;52.616;13.238;2023-03-23T08:09:34;5.17;;;2.93;;
6928;SDS011;3504;52.616;13.238;2023-03-23T08:14:59;4.70;;;2.87;;
6928;SDS011;3504;52.616;13.238;2023-03-23T08:20:14;3.43;;;2.63;;
6928;SDS011;3504;52.616;13.238;2023-03-23T08:25:34;5.37;;;3.03;;
6928;SDS011;3504;52.616;13.238;2023-03-23T08:30:46;4.73;;;3.03;;
6928;SDS011;3504;52.616;13.238;2023-03-23T08:36:08;3.00;;;2.70;;
6928;SDS011;3504;52.616;13.238;2023-03-23T08:41:48;3.57;;;2.83;;
6928;SDS011;3504;52.616;13.238;2023-03-23T08:47:00;7.20;;;3.40;;
6928;SDS011;3504;52.616;13.238;2023-03-23T08:52:26;3.90;;;2.50;;
6928;SDS011;3504;52.616;13.238;2023-03-23T08:57:41;5.87;;;3.20;;
6928;SDS011;3504;52.616;13.238;2023-03-23T09:02:52;5.43;;;3.50;;
6928;SDS011;3504;52.616;13.238;2023-03-23T09:07:56;3.83;;;2.77;;
6928;SDS011;3504;52.616;13.238;2023-03-23T09:13:00;4.00;;;3.07;;
6928;SDS011;3504;52.616;13.238;2023-03-23T09:18:03;3.60;;;2.47;;
6928;SDS011;3504;52.616;13.238;2023-03-23T09:23:04;3.23;;;2.90;;
6928;SDS011;3504;52.616;13.238;2023-03-23T09:28:05;3.17;;;2.50;;
6928;SDS011;3504;52.616;13.238;2023-03-23T09:33:06;3.03;;;2.50;;
6928;SDS011;3504;52.616;13.238;2023-03-23T09:38:08;3.90;;;2.73;;
6928;SDS011;3504;52.616;13.238;2023-03-23T09:43:31;2.97;;;2.60;;
6928;SDS011;3504;52.616;13.238;2023-03-23T09:48:50;4.13;;;2.20;;
6928;SDS011;3504;52.616;13.238;2023-03-23T09:54:01;3.43;;;2.47;;
6928;SDS011;3504;52.616;13.238;2023-03-23T10:05:04;2.93;;;2.10;;
6928;SDS011;3504;52.616;13.238;2023-03-23T10:10:56;4.00;;;2.40;;
6928;SDS011;3504;52.616;13.238;2023-03-23T10:16:32;3.03;;;2.33;;
6928;SDS011;3504;52.616;13.238;2023-03-23T10:21:41;2.07;;;1.87;;
6928;SDS011;3504;52.616;13.238;2023-03-23T10:32:36;3.40;;;2.23;;
6928;SDS011;3504;52.616;13.238;2023-03-23T10:37:46;2.73;;;2.40;;
6928;SDS011;3504;52.616;13.238;2023-03-23T10:42:53;2.87;;;2.03;;
6928;SDS011;3504;52.616;13.238;2023-03-23T10:53:34;2.90;;;2.00;;
6928;SDS011;3504;52.616;13.238;2023-03-23T10:58:39;2.53;;;1.90;;
6928;SDS011;3504;52.616;13.238;2023-03-23T11:03:41;2.50;;;1.70;;
6928;SDS011;3504;52.616;13.238;2023-03-23T11:08:48;3.67;;;2.20;;
6928;SDS011;3504;52.616;13.238;2023-03-23T11:14:02;3.33;;;1.97;;
6928;SDS011;3504;52.616;13.238;2023-03-23T11:19:14;2.67;;;1.57;;
6928;SDS011;3504;52.616;13.238;2023-03-23T11:24:22;2.77;;;1.70;;
6928;SDS011;3504;52.616;13.238;2023-03-23T11:29:26;1.87;;;1.70;;
6928;SDS011;3504;52.616;13.238;2023-03-23T11:34:32;2.93;;;1.87;;
6928;SDS011;3504;52.616;13.238;2023-03-23T11:45:19;2.07;;;1.80;;
6928;SDS011;3504;52.616;13.238;2023-03-23T11:50:24;2.07;;;1.80;;
6928;SDS011;3504;52.616;13.238;2023-03-23T12:01:11;4.40;;;1.80;;
6928;SDS011;3504;52.616;13.238;2023-03-23T12:06:10;3.07;;;1.90;;
6928;SDS011;3504;52.616;13.238;2023-03-23T12:11:33;3.87;;;2.10;;
6928;SDS011;3504;52.616;13.238;2023-03-23T12:22:21;3.87;;;1.90;;
6928;SDS011;3504;52.616;13.238;2023-03-23T12:39:00;3.33;;;2.10;;
6928;SDS011;3504;52.616;13.238;2023-03-23T12:44:27;3.37;;;2.23;;
6928;SDS011;3504;52.616;13.238;2023-03-23T12:49:42;2.53;;;2.00;;
6928;SDS011;3504;52.616;13.238;2023-03-23T12:54:59;3.53;;;1.87;;
6928;SDS011;3504;52.616;13.238;2023-03-23T13:00:18;3.27;;;2.27;;
6928;SDS011;3504;52.616;13.238;2023-03-23T13:10:32;2.80;;;2.20;;
6928;SDS011;3504;52.616;13.238;2023-03-23T13:15:46;2.87;;;1.93;;
6928;SDS011;3504;52.616;13.238;2023-03-23T13:27:09;4.40;;;2.13;;
6928;SDS011;3504;52.616;13.238;2023-03-23T13:32:18;4.33;;;2.23;;
6928;SDS011;3504;52.616;13.238;2023-03-23T13:37:24;4.38;;;2.05;;
6928;SDS011;3504;52.616;13.238;2023-03-23T13:42:27;3.17;;;2.35;;
6928;SDS011;3504;52.616;13.238;2023-03-23T13:47:36;4.13;;;2.25;;
6928;SDS011;3504;52.616;13.238;2023-03-23T14:03:03;4.07;;;2.00;;
6928;SDS011;3504;52.616;13.238;2023-03-23T14:18:48;3.78;;;1.70;;
6928;SDS011;3504;52.616;13.238;2023-03-23T14:24:16;4.33;;;2.30;;
6928;SDS011;3504;52.616;13.238;2023-03-23T14:29:23;4.30;;;2.17;;
6928;SDS011;3504;52.616;13.238;2023-03-23T14:34:24;4.00;;;2.15;;
6928;SDS011;3504;52.616;13.238;2023-03-23T14:39:29;5.50;;;2.10;;
6928;SDS011;3504;52.616;13.238;2023-03-23T14:44:33;5.57;;;1.90;;
6928;SDS011;3504;52.616;13.238;2023-03-23T14:49:38;2.72;;;2.38;;
6928;SDS011;3504;52.616;13.238;2023-03-23T14:54:42;4.00;;;1.90;;
6928;SDS011;3504;52.616;13.238;2023-03-23T14:59:46;3.53;;;1.80;;
6928;SDS011;3504;52.616;13.238;2023-03-23T15:04:48;3.17;;;1.90;;
6928;SDS011;3504;52.616;13.238;2023-03-23T15:09:53;3.53;;;1.92;;
6928;SDS011;3504;52.616;13.238;2023-03-23T15:14:54;3.28;;;1.98;;
6928;SDS011;3504;52.616;13.238;2023-03-23T15:20:17;4.55;;;1.98;;
6928;SDS011;3504;52.616;13.238;2023-03-23T15:25:29;5.07;;;2.53;;
6928;SDS011;3504;52.616;13.238;2023-03-23T15:30:33;3.45;;;2.03;;
6928;SDS011;3504;52.616;13.238;2023-03-23T15:35:38;3.30;;;1.98;;
6928;SDS011;3504;52.616;13.238;2023-03-23T15:40:48;3.42;;;2.17;;
6928;SDS011;3504;52.616;13.238;2023-03-23T15:46:20;4.18;;;2.22;;
6928;SDS011;3504;52.616;13.238;2023-03-23T15:51:24;4.43;;;2.20;;
6928;SDS011;3504;52.616;13.238;2023-03-23T15:56:27;3.28;;;2.08;;
6928;SDS011;3504;52.616;13.238;2023-03-23T16:01:29;5.60;;;2.10;;
6928;SDS011;3504;52.616;13.238;2023-03-23T16:06:31;3.60;;;2.20;;
6928;SDS011;3504;52.616;13.238;2023-03-23T16:11:33;7.30;;;2.00;;
6928;SDS011;3504;52.616;13.238;2023-03-23T16:16:37;6.35;;;1.92;;
6928;SDS011;3504;52.616;13.238;2023-03-23T16:21:46;8.67;;;2.40;;
6928;SDS011;3504;52.616;13.238;2023-03-23T16:26:46;3.90;;;1.93;;
6928;SDS011;3504;52.616;13.238;2023-03-23T16:31:47;4.07;;;1.87;;
6928;SDS011;3504;52.616;13.238;2023-03-23T16:36:47;4.00;;;2.30;;
6928;SDS011;3504;52.616;13.238;2023-03-23T16:41:48;3.77;;;2.23;;
6928;SDS011;3504;52.616;13.238;2023-03-23T16:46:49;3.33;;;1.77;;
6928;SDS011;3504;52.616;13.238;2023-03-23T16:51:49;4.77;;;3.47;;
6928;SDS011;3504;52.616;13.238;2023-03-23T16:56:50;5.30;;;2.23;;
6928;SDS011;3504;52.616;13.238;2023-03-23T17:01:50;4.73;;;1.60;;
6928;SDS011;3504;52.616;13.238;2023-03-23T17:06:51;4.23;;;2.60;;
6928;SDS011;3504;52.616;13.238;2023-03-23T17:11:52;4.23;;;2.60;;
6928;SDS011;3504;52.616;13.238;2023-03-23T17:16:53;6.23;;;2.17;;
6928;SDS011;3504;52.616;13.238;2023-03-23T17:21:54;4.63;;;1.97;;
6928;SDS011;3504;52.616;13.238;2023-03-23T17:26:54;3.03;;;1.70;;
6928;SDS011;3504;52.616;13.238;2023-03-23T17:31:55;2.70;;;1.80;;
6928;SDS011;3504;52.616;13.238;2023-03-23T17:36:55;3.17;;;1.80;;
6928;SDS011;3504;52.616;13.238;2023-03-23T17:41:56;5.30;;;1.80;;
6928;SDS011;3504;52.616;13.238;2023-03-23T17:46:58;3.63;;;1.97;;
6928;SDS011;3504;52.616;13.238;2023-03-23T17:51:59;3.13;;;1.90;;
6928;SDS011;3504;52.616;13.238;2023-03-23T17:57:00;2.90;;;1.70;;
6928;SDS011;3504;52.616;13.238;2023-03-23T18:02:02;3.00;;;1.80;;
6928;SDS011;3504;52.616;13.238;2023-03-23T18:07:03;3.17;;;1.97;;
6928;SDS011;3504;52.616;13.238;2023-03-23T18:12:03;2.87;;;2.00;;
6928;SDS011;3504;52.616;13.238;2023-03-23T18:17:04;3.40;;;2.80;;
6928;SDS011;3504;52.616;13.238;2023-03-23T18:22:05;4.77;;;2.90;;
6928;SDS011;3504;52.616;13.238;2023-03-23T18:27:06;4.73;;;2.73;;
6928;SDS011;3504;52.616;13.238;2023-03-23T18:32:06;4.23;;;2.30;;
6928;SDS011;3504;52.616;13.238;2023-03-23T18:37:07;3.30;;;2.17;;
6928;SDS011;3504;52.616;13.238;2023-03-23T18:42:07;4.87;;;2.73;;
6928;SDS011;3504;52.616;13.238;2023-03-23T18:47:08;5.43;;;3.20;;
6928;SDS011;3504;52.616;13.238;2023-03-23T18:52:08;8.10;;;2.93;;
6928;SDS011;3504;52.616;13.238;2023-03-23T18:57:10;4.00;;;2.60;;
6928;SDS011;3504;52.616;13.238;2023-03-23T19:02:11;4.37;;;2.83;;
6928;SDS011;3504;52.616;13.238;2023-03-23T19:07:13;5.17;;;2.60;;
6928;SDS011;3504;52.616;13.238;2023-03-23T19:12:15;4.83;;;2.80;;
6928;SDS011;3504;52.616;13.238;2023-03-23T19:17:15;4.50;;;3.00;;
6928;SDS011;3504;52.616;13.238;2023-03-23T19:22:16;8.93;;;3.40;;
6928;SDS011;3504;52.616;13.238;2023-03-23T19:27:17;6.23;;;3.23;;
6928;SDS011;3504;52.616;13.238;2023-03-23T19:32:19;7.30;;;3.07;;
6928;SDS011;3504;52.616;13.238;2023-03-23T19:37:19;7.17;;;3.17;;
6928;SDS011;3504;52.616;13.238;2023-03-23T19:42:20;6.07;;;3.20;;
6928;SDS011;3504;52.616;13.238;2023-03-23T19:47:21;6.27;;;3.47;;
6928;SDS011;3504;52.616;13.238;2023-03-23T19:52:21;6.83;;;3.10;;
6928;SDS011;3504;52.616;13.238;2023-03-23T19:57:22;4.73;;;2.87;;
6928;SDS011;3504;52.616;13.238;2023-03-23T20:02:23;4.83;;;2.87;;
6928;SDS011;3504;52.616;13.238;2023-03-23T20:07:23;7.10;;;3.23;;
6928;SDS011;3504;52.616;13.238;2023-03-23T20:12:24;6.53;;;3.50;;
6928;SDS011;3504;52.616;13.238;2023-03-23T20:17:24;5.30;;;3.40;;
6928;SDS011;3504;52.616;13.238;2023-03-23T20:22:25;6.07;;;3.67;;
6928;SDS011;3504;52.616;13.238;2023-03-23T20:27:25;5.33;;;3.07;;
6928;SDS011;3504;52.616;13.238;2023-03-23T20:32:28;3.53;;;3.10;;
6928;SDS011;3504;52.616;13.238;2023-03-23T20:37:32;4.30;;;3.13;;
6928;SDS011;3504;52.616;13.238;2023-03-23T20:42:34;6.73;;;3.63;;
6928;SDS011;3504;52.616;13.238;2023-03-23T20:47:34;4.83;;;3.10;;
6928;SDS011;3504;52.616;13.238;2023-03-23T20:52:35;4.50;;;3.00;;
6928;SDS011;3504;52.616;13.238;2023-03-23T20:57:36;5.63;;;3.07;;
6928;SDS011;3504;52.616;13.238;2023-03-23T21:02:39;5.93;;;3.40;;
6928;SDS011;3504;52.616;13.238;2023-03-23T21:07:41;3.20;;;2.90;;
6928;SDS011;3504;52.616;13.238;2023-03-23T21:12:41;7.83;;;3.03;;
6928;SDS011;3504;52.616;13.238;2023-03-23T21:17:42;4.27;;;3.23;;
6928;SDS011;3504;52.616;13.238;2023-03-23T21:22:42;5.23;;;3.80;;
6928;SDS011;3504;52.616;13.238;2023-03-23T21:27:43;8.17;;;4.23;;
6928;SDS011;3504;52.616;13.238;2023-03-23T21:32:43;7.03;;;5.10;;
6928;SDS011;3504;52.616;13.238;2023-03-23T21:37:44;6.40;;;4.70;;
6928;SDS011;3504;52.616;13.238;2023-03-23T21:42:47;9.10;;;4.77;;
6928;SDS011;3504;52.616;13.238;2023-03-23T21:47:48;8.77;;;5.50;;
6928;SDS011;3504;52.616;13.238;2023-03-23T21:52:56;7.33;;;5.03;;
6928;SDS011;3504;52.616;13.238;2023-03-23T21:57:57;9.17;;;5.20;;
6928;SDS011;3504;52.616;13.238;2023-03-23T22:02:58;6.17;;;5.03;;
6928;SDS011;3504;52.616;13.238;2023-03-23T22:07:58;8.87;;;5.83;;
6928;SDS011;3504;52.616;13.238;2023-03-23T22:12:59;5.40;;;4.60;;
6928;SDS011;3504;52.616;13.238;2023-03-23T22:18:00;8.37;;;5.07;;
6928;SDS011;3504;52.616;13.238;2023-03-23T22:23:00;8.00;;;5.47;;
6928;SDS011;3504;52.616;13.238;2023-03-23T22:28:01;8.50;;;6.00;;
6928;SDS011;3504;52.616;13.238;2023-03-23T22:33:04;8.47;;;5.43;;
6928;SDS011;3504;52.616;13.238;2023-03-23T22:38:05;9.37;;;5.93;;
6928;SDS011;3504;52.616;13.238;2023-03-23T22:43:05;7.37;;;5.33;;
6928;SDS011;3504;52.616;13.238;2023-03-23T22:48:06;10.67;;;5.90;;
6928;SDS011;3504;52.616;13.238;2023-03-23T22:53:07;8.00;;;5.53;;
6928;SDS011;3504;52.616;13.238;2023-03-23T22:58:08;9.13;;;5.50;;
6928;SDS011;3504;52.616;13.238;2023-03-23T23:03:09;8.57;;;5.73;;
6928;SDS011;3504;52.616;13.238;2023-03-23T23:08:11;7.07;;;5.20;;
6928;SDS011;3504;52.616;13.238;2023-03-23T23:13:12;7.20;;;4.87;;
6928;SDS011;3504;52.616;13.238;2023-03-23T23:18:13;8.10;;;5.20;;
6928;SDS011;3504;52.616;13.238;2023-03-23T23:23:15;9.10;;;5.40;;
6928;SDS011;3504;52.616;13.238;2023-03-23T23:28:16;7.70;;;5.07;;
6928;SDS011;3504;52.616;13.238;2023-03-23T23:33:17;8.50;;;5.03;;
6928;SDS011;3504;52.616;13.238;2023-03-23T23:38:19;7.43;;;4.63;;
6928;SDS011;3504;52.616;13.238;2023-03-23T23:43:21;8.70;;;5.20;;
6928;SDS011;3504;52.616;13.238;2023-03-23T23:48:21;9.80;;;5.03;;
6928;SDS011;3504;52.616;13.238;2023-03-23T23:53:22;8.30;;;4.80;;
6928;SDS011;3504;52.616;13.238;2023-03-23T23:58:24;6.60;;;5.10;;
